Skip Navigation LinksHome page > Weather > Current weather Skip Navigation Links

Current Weather

Dallas Love Field, Dallas

For information only: do not use for flight planning or navigation.
Latest weather
Observation time Thursday, November 21, 2019 1:05 PM CST
Local time Thursday, November 21, 2019 2:01 PM CST
Flight conditions Visual Meteorological Conditions
Winds
Wind direction West-Southwest (240°)
Wind speed 7 mph
Visibility 10 mi.
Sky condition
Ceiling 3,200 ft. broken clouds
Cloud layer broken clouds 3,200 ft.
Cloud layer broken clouds 4,500 ft.
Cloud layer overcast 6,000 ft.
Temperature 75°F
Dewpoint 63°F
Altimeter 29.90 in.Hg
Derived measurements
Relative humidity 65%
Density altitude 1821 ft.
Remarks
Special weather observation.
METAR SPUS81 KWBC 211909 SPECI KDAL 211905Z 24006KT 10SM BKN032 BKN045 OVC060 24/17 A2990

Settings

Location code

InnerDrive.Weather 4.0.6770.0 Release CLR 4.0.30319.42000
Copyright ©2018 Inner Drive Technology. All rights reserved. Portions Copyright ©1986-2018 David Braverman.

Find weather

Site navigation


Skip Navigation Links

Place info

Page info

PayPal - The safer, easier way to pay online!

Return home.

Copyright ©2019 Inner Drive Technology. Purveyors of fine, hand-crafted computer software. Page printed 2019-11-21T20:01:44 UTC.